Time;durP1;ratioP1;P1;durP2;ratioP2;P2;SDS_P1;SDS_P2;PMS_P1;PMS_P2;Temp;Humidity;BMP_temperature;BMP_pressure;BME280_temperature;BME280_humidity;BME280_pressure;Samples;Min_cycle;Max_cycle;Signal;HPM_P1;HPM_P2
2022/04/20 00:01:50;;;;;;;5.35;4.75;;;;;;;3.71;57.34;98579.94;1747551;81;21045;-69
2022/04/20 00:04:16;;;;;;;5.90;4.65;;;;;;;3.70;57.43;98586.20;1731581;81;20982;-69
2022/04/20 00:06:44;;;;;;;7.28;5.45;;;;;;;3.67;57.54;98581.23;1737680;82;20985;-68
2022/04/20 00:09:12;;;;;;;5.53;4.97;;;;;;;3.67;57.64;98578.59;1682373;85;21639;-69
2022/04/20 00:11:40;;;;;;;5.58;5.03;;;;;;;3.64;57.77;98575.78;1693945;84;20935;-69
2022/04/20 00:14:06;;;;;;;5.80;5.00;;;;;;;3.60;57.90;98570.45;1695052;84;21290;-68
2022/04/20 00:16:33;;;;;;;5.62;4.97;;;;;;;3.60;57.99;98570.45;1687663;84;21129;-68
2022/04/20 00:19:00;;;;;;;5.80;5.20;;;;;;;3.61;57.98;98572.12;1693655;84;21003;-68
2022/04/20 00:21:27;;;;;;;6.35;5.28;;;;;;;3.61;58.05;98559.45;1692021;84;21017;-69
2022/04/20 00:23:55;;;;;;;7.50;5.33;;;;;;;3.57;58.21;98568.63;1685584;84;20947;-69
2022/04/20 00:26:22;;;;;;;6.00;5.03;;;;;;;3.59;58.32;98569.30;1697653;84;22012;-67
2022/04/20 00:28:49;;;;;;;8.98;5.15;;;;;;;3.55;58.35;98568.77;1690564;84;20943;-68
2022/04/20 00:31:18;;;;;;;6.58;5.33;;;;;;;3.55;58.44;98558.24;1716016;83;20978;-69
2022/04/20 00:33:45;;;;;;;6.50;5.05;;;;;;;3.54;58.54;98563.19;1730302;83;21051;-66
2022/04/20 00:36:12;;;;;;;6.55;4.62;;;;;;;3.54;58.58;98568.44;1729506;83;21118;-68
2022/04/20 00:38:38;;;;;;;8.95;6.08;;;;;;;3.51;58.63;98564.78;1690162;85;21275;-68
2022/04/20 00:41:06;;;;;;;8.23;6.25;;;;;;;3.51;58.77;98563.95;1688942;85;20999;-71
2022/04/20 00:43:32;;;;;;;7.95;6.15;;;;;;;3.50;58.84;98564.91;1664743;85;20891;-68
2022/04/20 00:46:00;;;;;;;7.80;6.78;;;;;;;3.50;58.94;98564.91;1662119;86;21066;-68
2022/04/20 00:48:27;;;;;;;7.83;6.67;;;;;;;3.51;59.02;98554.75;1701444;82;20979;-67
2022/04/20 00:50:54;;;;;;;9.63;7.25;;;;;;;3.50;59.02;98557.86;1736623;82;21142;-69
2022/04/20 00:53:22;;;;;;;8.50;6.87;;;;;;;3.49;59.04;98560.17;1734789;82;21356;-67
2022/04/20 00:55:50;;;;;;;7.37;6.55;;;;;;;3.49;59.11;98559.34;1734887;82;20869;-67
2022/04/20 00:58:17;;;;;;;7.37;6.62;;;;;;;3.46;59.17;98555.20;1687623;85;21109;-69
2022/04/20 01:00:44;;;;;;;11.05;8.05;;;;;;;3.48;59.19;98558.98;1746312;82;20970;-69
2022/04/20 01:03:12;;;;;;;14.05;9.33;;;;;;;3.46;59.25;98557.83;1701509;83;21303;-69
2022/04/20 01:05:57;;;;;;;18.32;11.05;;;;;;;3.48;59.23;98561.13;1708192;83;21567;-69
2022/04/20 01:08:43;;;;;;;22.05;12.78;;;;;;;3.42;59.47;98561.71;1685455;85;21466;-69
2022/04/20 01:11:29;;;;;;;20.80;11.85;;;;;;;3.41;59.61;98562.70;1707205;83;20915;-69
2022/04/20 01:14:13;;;;;;;17.37;10.75;;;;;;;3.38;59.77;98564.31;1680326;85;21090;-70
2022/04/20 01:16:45;;;;;;;16.32;11.25;;;;;;;3.38;59.99;98564.31;1700878;82;21131;-69
2022/04/20 01:19:16;;;;;;;12.25;8.75;;;;;;;3.45;60.05;98561.42;1732385;82;21041;-67
2022/04/20 01:21:44;;;;;;;12.00;8.13;;;;;;;3.49;60.13;98568.06;1736524;82;20986;-68
2022/04/20 01:24:13;;;;;;;15.75;9.35;;;;;;;3.58;60.20;98565.01;1730217;82;20995;-69
2022/04/20 01:26:49;;;;;;;;;;;;;;;3.64;60.18;98554.73;1689140;83;20835;-69
2022/04/20 01:29:23;;;;;;;9.70;6.47;;;;;;;3.67;60.29;98554.92;1720752;83;22286;-68
2022/04/20 01:32:07;;;;;;;9.95;7.00;;;;;;;3.75;60.20;98555.81;1720763;82;21500;-68
2022/04/20 01:34:35;;;;;;;6.83;5.95;;;;;;;3.76;60.32;98547.44;1721170;83;20930;-68
2022/04/20 01:37:04;;;;;;;8.80;5.72;;;;;;;3.84;60.29;98548.83;1734169;82;21066;-67
2022/04/20 01:39:31;;;;;;;7.30;5.72;;;;;;;3.89;60.20;98551.00;1736425;82;21019;-68
2022/04/20 01:41:58;;;;;;;7.72;5.90;;;;;;;3.94;60.08;98556.16;1723087;82;21274;-67
2022/04/20 01:44:25;;;;;;;8.80;6.28;;;;;;;4.00;59.86;98545.52;1687732;85;21008;-68
2022/04/20 01:46:54;;;;;;;8.48;6.40;;;;;;;4.00;59.68;98547.67;1728286;83;20942;-68
2022/04/20 01:49:23;;;;;;;9.50;7.72;;;;;;;3.99;59.62;98546.00;1727968;83;21110;-68
2022/04/20 01:51:55;;;;;;;14.07;9.13;;;;;;;3.97;59.56;98552.39;1727281;83;20939;-69
2022/04/20 01:54:26;;;;;;;13.28;8.33;;;;;;;3.94;59.57;98555.33;1686217;84;21239;-68
2022/04/20 01:56:54;;;;;;;15.93;8.88;;;;;;;3.91;59.48;98546.44;1701348;84;20987;-68
2022/04/20 01:59:36;;;;;;;13.98;8.75;;;;;;;3.98;59.28;98549.63;1701103;84;20991;-68
2022/04/20 02:04:57;;;;;;;15.08;7.55;;;;;;;3.95;59.29;98552.56;1677295;85;21032;-69
2022/04/20 02:07:25;;;;;;;10.10;6.72;;;;;;;3.89;59.41;98555.78;1695796;83;21843;-68
2022/04/20 02:09:53;;;;;;;7.20;5.65;;;;;;;3.89;59.46;98549.20;1726050;83;21053;-67
2022/04/20 02:12:20;;;;;;;6.47;5.62;;;;;;;3.87;59.47;98549.84;1674488;83;20911;-68
2022/04/20 02:15:09;;;;;;;5.33;4.83;;;;;;;3.86;59.43;98548.70;1703125;82;21005;-66
2022/04/20 02:17:43;;;;;;;5.25;4.45;;;;;;;3.80;59.49;98550.12;1722479;83;20982;-68
2022/04/20 02:20:13;;;;;;;7.08;4.70;;;;;;;3.74;59.57;98543.66;1719911;82;20994;-68
2022/04/20 02:22:40;;;;;;;5.60;4.92;;;;;;;3.70;59.65;98539.65;1725392;83;21109;-68
2022/04/20 02:25:09;;;;;;;6.55;5.65;;;;;;;3.71;59.72;98537.37;1725656;83;21045;-69
2022/04/20 02:27:37;;;;;;;5.05;4.55;;;;;;;3.72;59.91;98535.09;1726301;83;20919;-68
2022/04/20 02:30:06;;;;;;;5.60;4.90;;;;;;;3.77;59.91;98532.48;1725971;83;21587;-69
2022/04/20 02:32:33;;;;;;;7.30;5.65;;;;;;;3.78;59.88;98525.75;1726837;83;21759;-68
2022/04/20 02:35:01;;;;;;;7.00;5.53;;;;;;;3.84;59.78;98523.84;1725964;83;20907;-68
2022/04/20 02:37:29;;;;;;;5.22;4.72;;;;;;;3.79;59.89;98523.95;1727024;83;20915;-69
2022/04/20 02:39:57;;;;;;;5.15;4.58;;;;;;;3.82;59.86;98522.33;1704886;83;21021;-68
2022/04/20 02:42:24;;;;;;;4.45;4.00;;;;;;;3.84;59.88;98527.78;1710011;83;21072;-68
2022/04/20 02:44:52;;;;;;;5.35;4.85;;;;;;;3.88;59.85;98520.42;1724650;82;21026;-68
2022/04/20 02:47:20;;;;;;;6.28;4.78;;;;;;;3.92;59.77;98525.70;1702418;82;21033;-68
2022/04/20 02:49:48;;;;;;;4.75;3.85;;;;;;;3.95;59.80;98518.34;1696256;84;21057;-69
2022/04/20 02:52:16;;;;;;;5.58;4.03;;;;;;;4.00;59.75;98529.73;1708794;83;21013;-70
2022/04/20 02:54:43;;;;;;;5.62;4.92;;;;;;;4.04;59.74;98544.25;1703151;83;21382;-69
2022/04/20 02:57:10;;;;;;;6.95;4.75;;;;;;;4.13;59.62;98533.62;1697577;83;21129;-68
2022/04/20 02:59:36;;;;;;;5.92;5.15;;;;;;;4.19;59.49;98530.40;1701588;83;20962;-70
2022/04/20 03:02:05;;;;;;;7.33;5.62;;;;;;;4.24;59.33;98539.98;1740173;82;20958;-68
2022/04/20 03:04:33;;;;;;;8.75;6.53;;;;;;;4.25;59.20;98536.83;1748760;82;20998;-68
2022/04/20 03:07:01;;;;;;;10.10;7.35;;;;;;;4.27;59.08;98535.73;1748631;82;20895;-68
2022/04/20 03:09:33;;;;;;;8.10;6.50;;;;;;;4.28;59.08;98540.48;1742032;82;21259;-68
2022/04/20 03:12:01;;;;;;;8.53;6.75;;;;;;;4.28;59.08;98536.05;1741315;82;21022;-69
2022/04/20 03:14:29;;;;;;;6.67;5.50;;;;;;;4.32;59.03;98541.84;1748798;82;20895;-68
2022/04/20 03:16:59;;;;;;;8.95;6.70;;;;;;;4.39;58.93;98538.92;1749267;82;20971;-69
2022/04/20 03:19:26;;;;;;;10.28;6.50;;;;;;;4.42;58.83;98535.98;1749725;82;20994;-70
2022/04/20 03:21:53;;;;;;;8.35;6.40;;;;;;;4.44;58.74;98539.77;1748155;82;21274;-69
2022/04/20 03:24:21;;;;;;;10.95;6.58;;;;;;;4.44;58.83;98534.50;1747824;82;20891;-68
2022/04/20 03:26:50;;;;;;;12.75;7.25;;;;;;;4.48;58.83;98532.74;1739896;81;20884;-67
2022/04/20 03:29:23;;;;;;;10.63;6.85;;;;;;;4.52;58.80;98538.02;1741326;82;20956;-69
2022/04/20 03:31:54;;;;;;;10.05;6.65;;;;;;;4.56;58.79;98540.70;1737738;81;21048;-69
2022/04/20 03:34:20;;;;;;;8.25;6.25;;;;;;;4.59;58.76;98546.15;1740364;81;21145;-70
2022/04/20 03:36:48;;;;;;;7.03;5.72;;;;;;;4.60;58.70;98542.52;1739315;82;22549;-69
2022/04/20 03:39:15;;;;;;;6.25;5.37;;;;;;;4.61;58.69;98545.02;1719248;83;21023;-67
2022/04/20 03:41:44;;;;;;;5.28;4.60;;;;;;;4.63;58.67;98547.48;1713194;82;20990;-69
2022/04/20 03:44:12;;;;;;;6.40;5.10;;;;;;;4.66;58.69;98550.64;1712669;83;20892;-70
2022/04/20 03:46:38;;;;;;;6.35;5.37;;;;;;;4.74;58.66;98551.17;1749624;82;21147;-68
2022/04/20 03:49:04;;;;;;;6.37;5.17;;;;;;;4.77;58.63;98550.35;1748719;82;21516;-69
2022/04/20 03:51:32;;;;;;;6.00;5.10;;;;;;;4.79;58.66;98549.73;1749729;82;20859;-68
2022/04/20 03:53:59;;;;;;;5.45;4.92;;;;;;;4.84;58.61;98550.57;1742196;82;20962;-69
2022/04/20 03:57:03;;;;;;;5.72;5.00;;;;;;;4.90;58.45;98548.13;1749523;82;20852;-70
2022/04/20 03:59:02;;;;;;;5.65;4.80;;;;;;;4.98;58.24;98550.80;1745262;82;21010;-70
2022/04/20 04:01:28;;;;;;;5.30;4.80;;;;;;;5.04;58.18;98549.83;1719497;82;21140;-69
2022/04/20 04:03:57;;;;;;;5.22;4.47;;;;;;;5.05;58.27;98551.02;1750756;82;20951;-68
2022/04/20 04:06:23;;;;;;;5.08;4.58;;;;;;;5.14;58.19;98557.95;1750780;82;21051;-68
2022/04/20 04:08:51;;;;;;;6.30;5.53;;;;;;;5.18;57.94;98555.36;1752409;82;21402;-68
2022/04/20 04:11:18;;;;;;;5.30;4.80;;;;;;;5.24;57.62;98559.17;1725749;81;21139;-69
2022/04/20 04:13:45;;;;;;;4.95;4.47;;;;;;;5.24;57.39;98554.70;1745154;82;20994;-67
2022/04/20 04:16:13;;;;;;;5.50;4.95;;;;;;;5.24;57.27;98559.97;1746056;81;21253;-69
2022/04/20 04:18:41;;;;;;;5.58;4.45;;;;;;;5.26;57.22;98559.84;1745340;81;20974;-68
2022/04/20 04:21:11;;;;;;;5.33;4.37;;;;;;;5.29;57.09;98559.00;1751303;82;21390;-68
2022/04/20 04:23:38;;;;;;;6.45;4.28;;;;;;;5.29;56.87;98555.05;1748094;82;21262;-68
2022/04/20 04:26:09;;;;;;;4.55;4.15;;;;;;;5.29;56.75;98560.32;1750468;82;20911;-69
2022/04/20 04:28:42;;;;;;;5.15;4.62;;;;;;;5.29;56.71;98562.96;1741570;82;21084;-68
2022/04/20 04:31:10;;;;;;;4.83;4.42;;;;;;;5.32;56.68;98562.64;1687174;85;20955;-68
2022/04/20 04:33:37;;;;;;;5.50;5.00;;;;;;;5.35;56.60;98566.77;1723205;82;21031;-69
2022/04/20 04:36:05;;;;;;;4.62;4.22;;;;;;;5.41;56.42;98563.52;1702048;83;21222;-68
2022/04/20 04:38:35;;;;;;;7.25;5.35;;;;;;;5.42;56.35;98554.11;1699888;84;20999;-69
2022/04/20 04:41:01;;;;;;;7.25;5.35;;;;;;;5.49;56.22;98559.09;1701565;84;20900;-69
2022/04/20 04:43:30;;;;;;;5.92;5.42;;;;;;;5.52;56.10;98557.95;1708717;83;20995;-67
2022/04/20 04:48:49;;;;;;;6.00;5.50;;;;;;;5.56;56.02;98557.45;1727271;82;21220;-68
2022/04/20 04:51:16;;;;;;;6.47;5.78;;;;;;;5.58;55.91;98552.84;1730817;83;21015;-69
2022/04/20 04:53:44;;;;;;;5.40;4.90;;;;;;;5.65;55.84;98550.89;1736231;82;21054;-70
2022/04/20 04:56:13;;;;;;;6.10;5.28;;;;;;;5.69;55.73;98550.39;1718507;83;20996;-70
2022/04/20 04:58:44;;;;;;;7.35;5.28;;;;;;;5.72;55.64;98551.39;1700510;84;21051;-69
2022/04/20 05:01:12;;;;;;;5.45;4.90;;;;;;;5.80;55.57;98548.77;1722997;82;20880;-69
2022/04/20 05:03:39;;;;;;;5.10;4.62;;;;;;;5.87;55.41;98552.44;1704136;83;20872;-68
2022/04/20 05:06:06;;;;;;;5.05;4.53;;;;;;;5.95;55.22;98547.66;1747561;82;21025;-69
2022/04/20 05:08:36;;;;;;;5.25;4.72;;;;;;;6.02;55.10;98538.91;1721048;82;20987;-69
2022/04/20 05:11:04;;;;;;;4.80;4.25;;;;;;;6.05;54.96;98539.91;1747910;82;21034;-66
2022/04/20 05:13:33;;;;;;;5.37;4.47;;;;;;;6.13;54.88;98534.64;1745609;82;21148;-70
2022/04/20 05:16:01;;;;;;;6.28;4.70;;;;;;;6.20;54.57;98543.54;1740343;81;21035;-69
2022/04/20 05:18:28;;;;;;;4.80;3.98;;;;;;;6.26;54.29;98537.30;1676227;85;21019;-68
2022/04/20 05:20:57;;;;;;;6.58;4.30;;;;;;;6.30;54.11;98534.64;1740146;82;21595;-69
2022/04/20 05:23:24;;;;;;;5.53;4.42;;;;;;;6.37;53.85;98540.41;1745830;82;20979;-69
2022/04/20 05:25:51;;;;;;;4.78;4.37;;;;;;;6.48;53.71;98540.57;1748052;82;21242;-68
2022/04/20 05:28:19;;;;;;;4.92;4.42;;;;;;;6.63;53.60;98538.40;1748841;82;20998;-70
2022/04/20 05:30:45;;;;;;;4.85;4.35;;;;;;;6.79;53.27;98533.58;1744632;82;21042;-69
2022/04/20 05:33:12;;;;;;;5.35;4.62;;;;;;;6.96;52.91;98533.84;1732720;81;20975;-69
2022/04/20 05:35:39;;;;;;;4.90;4.50;;;;;;;7.10;52.56;98531.83;1731231;82;21066;-69
2022/04/20 05:41:43;;;;;;;4.75;4.35;;;;;;;7.41;51.91;98540.63;1740557;82;21006;-70
2022/04/20 05:43:32;;;;;;;5.10;4.70;;;;;;;7.60;51.66;98535.40;1706994;82;21406;-70
2022/04/20 05:45:59;;;;;;;5.08;4.67;;;;;;;7.71;51.41;98536.34;1748094;82;21021;-69
2022/04/20 05:48:27;;;;;;;5.45;4.85;;;;;;;7.84;51.11;98540.55;1744231;82;21190;-69
2022/04/20 05:50:55;;;;;;;5.80;5.30;;;;;;;7.96;50.89;98539.63;1744107;82;21330;-68
2022/04/20 05:53:23;;;;;;;5.65;5.15;;;;;;;8.04;50.63;98539.58;1745062;82;21054;-68
2022/04/20 05:55:51;;;;;;;5.90;5.30;;;;;;;8.09;50.50;98543.84;1744804;82;22198;-71
2022/04/20 05:58:18;;;;;;;6.10;5.50;;;;;;;8.19;50.39;98540.95;1743724;81;21001;-71
2022/04/20 06:00:45;;;;;;;6.22;5.45;;;;;;;8.27;50.21;98536.94;1722123;82;21065;-70
2022/04/20 06:03:30;;;;;;;5.87;5.35;;;;;;;8.31;50.17;98535.59;1722108;82;21286;-71
2022/04/20 06:06:03;;;;;;;8.28;6.15;;;;;;;8.38;50.07;98537.84;1732914;82;21046;-71
2022/04/20 06:08:31;;;;;;;6.85;6.17;;;;;;;8.42;49.91;98537.83;1723894;82;21014;-70
2022/04/20 06:11:04;;;;;;;12.40;6.92;;;;;;;8.44;49.90;98528.70;1746028;82;21073;-68
2022/04/20 06:13:32;;;;;;;9.78;6.60;;;;;;;8.55;49.78;98526.91;1742832;81;21643;-67
2022/04/20 06:16:11;;;;;;;8.40;5.97;;;;;;;8.63;49.74;98517.55;1738671;82;20956;-68
2022/04/20 06:18:49;;;;;;;7.12;6.53;;;;;;;8.79;49.68;98507.78;1740281;82;21619;-71
2022/04/20 06:21:18;;;;;;;7.72;6.92;;;;;;;8.97;49.31;98510.92;1741701;82;20927;-68
2022/04/20 06:23:51;;;;;;;6.45;5.85;;;;;;;9.06;49.17;98507.98;1737445;82;20939;-67
2022/04/20 06:26:22;;;;;;;6.75;6.12;;;;;;;9.24;48.95;98509.75;1740140;80;20967;-71
2022/04/20 06:29:01;;;;;;;9.08;7.25;;;;;;;9.40;48.74;98503.91;1740931;80;20958;-72
2022/04/20 06:31:46;;;;;;;8.08;6.53;;;;;;;9.52;48.31;98497.92;1734936;80;20975;-70
2022/04/20 06:34:22;;;;;;;10.18;9.18;;;;;;;9.60;47.94;98504.95;1739834;82;20895;-68
2022/04/20 06:36:56;;;;;;;7.75;7.05;;;;;;;9.72;47.82;98500.81;1734376;82;21077;-73
2022/04/20 06:39:43;;;;;;;7.85;7.15;;;;;;;9.92;47.72;98493.36;1720789;82;20998;-69
2022/04/20 06:42:14;;;;;;;7.75;6.92;;;;;;;10.31;47.26;98488.94;1733120;82;21375;-68
2022/04/20 06:44:42;;;;;;;8.08;6.95;;;;;;;10.72;46.80;98487.69;1735566;82;20959;-70
2022/04/20 06:47:20;;;;;;;8.20;7.45;;;;;;;11.12;46.27;98490.08;1702903;82;21008;-70
2022/04/20 06:50:07;;;;;;;7.67;6.85;;;;;;;11.61;45.26;98485.34;1724480;82;21469;-68
2022/04/20 06:58:35;;;;;;;6.78;6.12;;;;;;;13.14;42.66;98463.30;1743192;82;21174;-69
2022/04/20 07:01:07;;;;;;;7.30;6.70;;;;;;;13.42;42.25;98469.68;1746799;82;21073;-68
2022/04/20 07:03:37;;;;;;;8.30;6.55;;;;;;;13.79;41.33;98473.40;1723169;82;21383;-68
2022/04/20 07:06:24;;;;;;;6.92;6.20;;;;;;;13.85;40.98;98481.88;1730835;82;21398;-71
2022/04/20 07:08:52;;;;;;;6.72;6.15;;;;;;;13.93;40.31;98478.44;1723230;82;22034;-68
2022/04/20 07:11:22;;;;;;;6.12;5.62;;;;;;;13.95;40.07;98475.02;1747875;81;20998;-69
2022/04/20 07:13:52;;;;;;;7.42;5.87;;;;;;;13.90;40.28;98480.71;1750473;82;21465;-70
2022/04/20 07:16:19;;;;;;;6.80;6.20;;;;;;;13.98;40.03;98483.95;1705303;82;21522;-69
2022/04/20 07:18:49;;;;;;;6.72;6.12;;;;;;;13.93;39.66;98486.97;1748046;81;21118;-69
2022/04/20 07:21:23;;;;;;;7.62;6.30;;;;;;;13.73;39.61;98491.11;1746268;82;21126;-69
2022/04/20 07:24:11;;;;;;;7.58;5.67;;;;;;;13.50;39.97;98498.29;1729353;82;21009;-69
2022/04/20 07:26:57;;;;;;;8.03;5.72;;;;;;;13.17;40.71;98502.94;1746579;82;21021;-69
2022/04/20 07:29:25;;;;;;;6.75;6.15;;;;;;;13.02;41.00;98513.02;1750337;82;21010;-68
2022/04/20 07:32:04;;;;;;;6.00;5.50;;;;;;;12.84;41.24;98514.19;1727236;81;21250;-69
2022/04/20 07:34:40;;;;;;;6.45;5.85;;;;;;;12.63;41.74;98511.73;1744239;81;21134;-67
2022/04/20 07:37:24;;;;;;;6.78;5.55;;;;;;;12.45;42.11;98514.21;1744823;81;21110;-70
2022/04/20 07:39:57;;;;;;;7.60;6.72;;;;;;;12.30;42.71;98510.42;1733929;81;21042;-70
2022/04/20 07:42:44;;;;;;;8.83;6.90;;;;;;;12.28;42.86;98511.11;1733579;82;21025;-66
2022/04/20 07:45:13;;;;;;;6.53;5.92;;;;;;;12.37;42.92;98503.23;1746423;81;20888;-68
2022/04/20 07:48:01;;;;;;;6.47;5.97;;;;;;;12.41;42.76;98507.66;1648146;86;20944;-67
2022/04/20 07:50:36;;;;;;;5.70;5.20;;;;;;;12.32;42.71;98515.86;1649966;85;21110;-66
2022/04/20 07:53:08;;;;;;;6.87;6.30;;;;;;;12.24;42.78;98504.56;1692848;82;21077;-69
2022/04/20 07:55:43;;;;;;;7.75;7.05;;;;;;;12.27;42.89;98499.66;1744145;82;21113;-68
2022/04/20 07:58:10;;;;;;;9.20;5.65;;;;;;;12.58;42.97;98498.20;1744674;82;20946;-68
2022/04/20 08:00:41;;;;;;;6.28;5.70;;;;;;;12.93;42.84;98495.06;1723256;82;21339;-68
2022/04/20 08:03:19;;;;;;;5.67;5.17;;;;;;;13.37;42.20;98490.36;1738818;82;21009;-68
2022/04/20 08:05:53;;;;;;;5.83;5.30;;;;;;;14.40;40.85;98482.44;1721499;82;21112;-69
2022/04/20 08:08:23;;;;;;;5.83;4.95;;;;;;;14.64;40.54;98482.13;1692696;83;20977;-68
2022/04/20 08:10:51;;;;;;;5.60;4.97;;;;;;;14.90;39.75;98475.19;1719852;83;21013;-69
2022/04/20 08:16:05;;;;;;;;;;;;;;;15.09;39.29;98472.83;1722964;82;21557;-67
2022/04/20 08:18:34;;;;;;;5.45;5.03;;;;;;;15.30;38.95;98468.87;1719685;82;20136;-67
2022/04/20 08:21:09;;;;;;;5.53;5.03;;;;;;;15.43;38.63;98476.20;1728310;82;21487;-66
2022/04/20 08:23:37;;;;;;;6.78;5.55;;;;;;;15.51;38.44;98468.44;1733450;82;21017;-67
2022/04/20 08:26:04;;;;;;;8.10;5.70;;;;;;;15.48;37.85;98467.55;1676570;85;21251;-66
2022/04/20 08:28:32;;;;;;;6.55;5.95;;;;;;;15.32;38.09;98470.80;1728522;82;20887;-69
2022/04/20 08:31:00;;;;;;;7.28;5.78;;;;;;;15.28;38.26;98458.88;1747237;82;22283;-68
2022/04/20 08:33:28;;;;;;;7.35;6.47;;;;;;;15.23;38.16;98462.75;1684334;83;21081;-68
2022/04/20 08:35:56;;;;;;;6.83;6.12;;;;;;;15.14;38.13;98456.91;1728945;82;20986;-68
2022/04/20 08:38:23;;;;;;;8.20;6.70;;;;;;;14.99;38.44;98465.80;1746317;82;21261;-68
2022/04/20 08:40:51;;;;;;;7.67;5.83;;;;;;;15.05;38.42;98460.08;1746223;82;21591;-68
2022/04/20 08:43:19;;;;;;;7.15;6.55;;;;;;;15.05;38.07;98467.60;1728293;82;20997;-67
2022/04/20 08:45:48;;;;;;;7.33;6.72;;;;;;;14.81;38.52;98477.84;1718691;83;21062;-67
2022/04/20 08:48:18;;;;;;;6.53;6.00;;;;;;;14.69;38.69;98476.94;1719578;83;21054;-66
2022/04/20 08:50:45;;;;;;;7.80;7.10;;;;;;;14.70;38.79;98480.72;1720855;82;21351;-67
2022/04/20 08:53:11;;;;;;;7.55;6.83;;;;;;;14.68;39.03;98485.48;1720121;82;21013;-69
2022/04/20 08:55:39;;;;;;;8.78;6.78;;;;;;;14.61;38.93;98483.91;1719176;83;20946;-68
2022/04/20 08:58:07;;;;;;;8.05;6.75;;;;;;;14.62;39.01;98482.37;1682484;85;20919;-66
2022/04/20 09:00:34;;;;;;;9.90;6.60;;;;;;;14.78;38.80;98480.98;1700977;83;20947;-68
2022/04/20 09:03:03;;;;;;;6.75;6.00;;;;;;;14.81;38.96;98485.36;1728708;81;21971;-69
2022/04/20 09:05:34;;;;;;;7.10;6.53;;;;;;;15.10;38.71;98485.67;1681918;85;21526;-68
2022/04/20 09:08:10;;;;;;;6.60;6.00;;;;;;;15.37;38.29;98474.45;1719586;83;20968;-67
2022/04/20 09:10:38;;;;;;;6.25;5.62;;;;;;;15.67;38.04;98467.00;1735671;82;21061;-68
2022/04/20 09:13:09;;;;;;;6.00;5.50;;;;;;;15.77;37.62;98465.38;1749508;82;21002;-67
2022/04/20 09:15:36;;;;;;;6.80;6.20;;;;;;;16.53;36.85;98464.13;1748560;82;21255;-68
2022/04/20 09:18:04;;;;;;;7.08;6.45;;;;;;;16.93;36.44;98472.83;1749223;82;21058;-67
2022/04/20 09:20:34;;;;;;;7.40;6.70;;;;;;;17.20;35.88;98464.56;1749430;81;21122;-67
2022/04/20 09:23:10;;;;;;;6.53;6.00;;;;;;;18.24;34.44;98455.27;1737159;81;21002;-67
2022/04/20 09:25:42;;;;;;;6.30;5.78;;;;;;;18.97;33.13;98456.44;1725052;82;21006;-67
2022/04/20 09:28:10;;;;;;;7.00;6.40;;;;;;;18.99;32.90;98451.60;1745579;82;21021;-68
2022/04/20 09:30:38;;;;;;;7.58;6.97;;;;;;;19.06;32.41;98449.53;1748565;82;20931;-67
2022/04/20 09:33:09;;;;;;;14.47;7.30;;;;;;;18.63;32.18;98453.50;1737355;82;20997;-68
2022/04/20 09:35:48;;;;;;;10.30;6.00;;;;;;;18.07;33.34;98459.28;1718853;83;21068;-67
2022/04/20 09:38:19;;;;;;;6.35;5.75;;;;;;;18.06;33.29;98456.32;1719337;83;21092;-67
2022/04/20 09:40:49;;;;;;;6.03;5.42;;;;;;;18.79;32.25;98455.36;1725690;82;20990;-68
2022/04/20 09:43:21;;;;;;;8.73;5.25;;;;;;;18.24;32.54;98449.36;1738698;81;21026;-67
2022/04/20 09:46:04;;;;;;;5.55;5.12;;;;;;;18.21;32.61;98451.19;1719265;82;20880;-66
2022/04/20 09:48:51;;;;;;;6.92;5.35;;;;;;;18.03;33.00;98454.11;1721232;82;21053;-69
2022/04/20 09:51:20;;;;;;;9.23;6.50;;;;;;;17.95;33.03;98441.57;1742373;82;20986;-67
2022/04/20 09:53:49;;;;;;;7.75;7.08;;;;;;;17.69;32.97;98445.16;1737729;82;21108;-67
2022/04/20 09:56:23;;;;;;;6.65;6.15;;;;;;;17.50;33.17;98449.05;1748291;82;21014;-68
2022/04/20 09:59:02;;;;;;;6.75;6.15;;;;;;;17.41;33.48;98445.64;1748068;82;20999;-67
2022/04/20 10:01:34;;;;;;;5.65;4.97;;;;;;;17.31;33.57;98449.47;1748567;82;21086;-68
2022/04/20 10:04:03;;;;;;;5.97;5.50;;;;;;;17.12;33.68;98442.91;1734988;81;20981;-70
2022/04/20 10:06:30;;;;;;;5.72;5.28;;;;;;;17.00;33.76;98445.30;1719816;82;21222;-68
2022/04/20 10:08:57;;;;;;;8.53;7.17;;;;;;;16.89;33.91;98445.64;1719484;82;21548;-67
2022/04/20 10:11:26;;;;;;;8.80;6.75;;;;;;;16.70;33.90;98450.83;1707394;82;21540;-67
2022/04/20 10:16:48;;;;;;;10.38;7.92;;;;;;;16.28;34.46;98450.07;1720140;82;21073;-68
2022/04/20 10:19:14;;;;;;;9.98;8.90;;;;;;;16.12;34.62;98445.89;1706052;82;21817;-68
2022/04/20 10:21:52;;;;;;;10.53;9.18;;;;;;;15.93;35.04;98449.16;1659803;86;20986;-68
2022/04/20 10:24:29;;;;;;;11.10;7.72;;;;;;;15.78;35.43;98449.59;1703437;83;21431;-66
2022/04/20 10:27:06;;;;;;;8.25;7.45;;;;;;;15.75;35.39;98452.73;1641425;86;21078;-67
2022/04/20 10:29:56;;;;;;;6.80;6.20;;;;;;;15.66;35.45;98450.09;1708674;82;21054;-68
2022/04/20 10:32:25;;;;;;;6.83;6.03;;;;;;;15.58;35.65;98452.26;1726768;82;21317;-69
2022/04/20 10:34:54;;;;;;;6.53;5.95;;;;;;;15.55;35.76;98448.17;1730481;82;21591;-67
2022/04/20 10:37:30;;;;;;;7.22;6.53;;;;;;;15.58;35.89;98445.04;1726209;82;20936;-67
2022/04/20 10:40:15;;;;;;;6.92;6.22;;;;;;;15.68;35.59;98453.35;1730344;82;21277;-67
2022/04/20 10:42:42;;;;;;;10.43;6.75;;;;;;;15.68;35.59;98453.35;1728769;82;20937;-68
2022/04/20 10:45:10;;;;;;;7.90;7.05;;;;;;;15.65;36.06;98449.78;1731947;82;21261;-67
2022/04/20 10:47:42;;;;;;;8.90;7.58;;;;;;;15.58;36.08;98452.26;1720221;81;21549;-67
2022/04/20 10:50:22;;;;;;;7.53;6.62;;;;;;;15.48;36.24;98447.96;1659572;85;21050;-68
2022/04/20 10:53:03;;;;;;;7.33;5.97;;;;;;;15.41;36.44;98450.68;1714061;82;21528;-68
2022/04/20 10:55:41;;;;;;;7.12;6.53;;;;;;;15.35;36.63;98452.42;1704630;82;21054;-69
2022/04/20 10:58:22;;;;;;;7.17;6.58;;;;;;;15.30;36.50;98460.84;1715124;82;21222;-67
2022/04/20 11:01:11;;;;;;;7.30;6.70;;;;;;;15.19;36.55;98462.41;1726350;82;21032;-67
2022/04/20 11:04:07;;;;;;;8.73;6.90;;;;;;;15.04;36.79;98461.14;1722682;82;20967;-68
2022/04/20 11:07:04;;;;;;;;;;;;;;;15.00;37.10;98472.81;1706018;82;21086;-68
2022/04/20 11:09:52;;;;;;;13.45;12.15;;;;;;;15.01;37.15;98463.75;1729414;82;20170;-68
2022/04/20 11:18:39;;;;;;;8.25;7.55;;;;;;;15.12;37.21;98470.23;1716369;83;21037;-68
2022/04/20 11:21:19;;;;;;;9.08;8.28;;;;;;;15.25;37.05;98465.51;1716416;83;20987;-68
2022/04/20 11:23:59;;;;;;;8.43;7.67;;;;;;;15.46;36.95;98450.84;1718427;83;20947;-68
2022/04/20 11:26:32;;;;;;;8.65;7.85;;;;;;;15.58;36.48;98453.08;1719929;83;21561;-68
2022/04/20 11:29:09;;;;;;;7.60;6.97;;;;;;;15.67;36.25;98454.39;1721001;82;21046;-68
2022/04/20 11:31:42;;;;;;;8.95;8.18;;;;;;;15.78;36.39;98448.77;1724464;83;20944;-68
2022/04/20 11:34:10;;;;;;;8.38;7.67;;;;;;;15.96;36.22;98451.39;1705888;83;21580;-66
2022/04/20 11:36:43;;;;;;;8.88;8.08;;;;;;;16.17;35.80;98448.70;1715180;83;20963;-68
2022/04/20 11:39:11;;;;;;;8.35;7.55;;;;;;;16.28;35.51;98448.73;1701906;83;21081;-67
2022/04/20 11:41:39;;;;;;;7.97;7.30;;;;;;;16.35;35.45;98456.66;1696014;83;21070;-69
2022/04/20 11:44:31;;;;;;;8.03;7.35;;;;;;;16.79;34.91;98456.13;1679832;83;20956;-68
2022/04/20 11:47:07;;;;;;;7.92;7.15;;;;;;;16.73;34.85;98445.52;1711610;82;21035;-67
2022/04/20 11:49:40;;;;;;;7.97;7.28;;;;;;;16.89;34.56;98434.89;1713897;83;21633;-67
2022/04/20 11:52:11;;;;;;;8.45;7.37;;;;;;;16.94;34.03;98435.52;1716569;82;20890;-68
2022/04/20 11:54:44;;;;;;;6.42;5.83;;;;;;;16.93;33.81;98427.98;1719308;83;21528;-67
2022/04/20 11:57:18;;;;;;;6.65;6.15;;;;;;;16.91;33.58;98425.24;1719259;83;21386;-67
2022/04/20 11:59:49;;;;;;;6.47;5.97;;;;;;;16.95;33.53;98426.39;1720757;83;20982;-66
2022/04/20 12:02:18;;;;;;;6.08;5.67;;;;;;;17.04;33.50;98429.02;1723248;82;21019;-69
2022/04/20 12:04:47;;;;;;;5.65;5.15;;;;;;;17.07;33.19;98428.03;1722114;82;21112;-67
2022/04/20 12:07:17;;;;;;;6.17;5.67;;;;;;;17.09;33.32;98421.88;1747928;82;21053;-68
2022/04/20 12:09:47;;;;;;;6.15;5.55;;;;;;;17.23;33.48;98416.52;1738625;80;20920;-67
2022/04/20 12:12:15;;;;;;;6.33;5.83;;;;;;;17.36;33.23;98411.41;1679470;85;21113;-68
2022/04/20 12:14:42;;;;;;;6.45;5.95;;;;;;;17.36;32.95;98403.34;1749098;81;21070;-68
2022/04/20 12:17:20;;;;;;;6.03;5.53;;;;;;;17.36;33.00;98403.34;1723618;82;21112;-68
2022/04/20 12:19:50;;;;;;;6.17;5.60;;;;;;;17.38;33.03;98413.33;1683821;85;21006;-67
2022/04/20 12:22:18;;;;;;;5.97;5.47;;;;;;;17.43;32.95;98412.60;1715133;83;21611;-67